createdAt,value
2018-09-29T00:00:22.282Z,0
2018-09-29T00:01:31.706Z,0
2018-09-29T00:02:41.648Z,0
2018-09-29T00:03:50.818Z,0
2018-09-29T00:05:00.671Z,0
2018-09-29T00:06:09.839Z,0
2018-09-29T00:07:19.006Z,0
2018-09-29T00:08:28.441Z,0
2018-09-29T00:09:37.859Z,0
2018-09-29T00:10:47.301Z,0
2018-09-29T00:11:56.461Z,0
2018-09-29T00:13:06.371Z,0
2018-09-29T00:14:15.544Z,0
2018-09-29T00:15:25.230Z,0
2018-09-29T00:16:35.440Z,0
2018-09-29T00:17:44.961Z,0
2018-09-29T00:18:54.392Z,0
2018-09-29T00:20:03.814Z,0
2018-09-29T00:21:13.256Z,0
2018-09-29T00:22:23.188Z,0
2018-09-29T00:23:32.612Z,0
2018-09-29T00:24:42.775Z,0
2018-09-29T00:25:52.708Z,0
2018-09-29T00:27:01.872Z,0
2018-09-29T00:28:11.282Z,0
2018-09-29T00:29:20.958Z,0
2018-09-29T00:30:30.418Z,0
2018-09-29T00:31:40.102Z,0
2018-09-29T00:32:50.060Z,0
2018-09-29T00:33:59.484Z,0
2018-09-29T00:35:09.440Z,0
2018-09-29T00:36:18.869Z,0
2018-09-29T00:37:28.334Z,0
2018-09-29T00:38:38.258Z,0
2018-09-29T00:39:47.977Z,0
2018-09-29T00:40:56.875Z,0
2018-09-29T00:42:06.549Z,0
2018-09-29T00:43:16.235Z,0
2018-09-29T00:44:25.909Z,0
2018-09-29T00:45:35.595Z,0
2018-09-29T00:46:45.549Z,0
2018-09-29T00:47:55.238Z,0
2018-09-29T00:49:04.913Z,0
2018-09-29T00:50:14.324Z,0
2018-09-29T00:51:23.234Z,0
2018-09-29T00:52:32.396Z,0
2018-09-29T00:53:41.874Z,0
2018-09-29T00:54:51.053Z,0
2018-09-29T00:56:00.790Z,0
2018-09-29T00:57:09.714Z,0
2018-09-29T00:58:19.171Z,0
2018-09-29T00:59:28.892Z,0
2018-09-29T01:00:38.355Z,0
2018-09-29T01:01:47.792Z,0
2018-09-29T01:02:57.268Z,0
2018-09-29T01:04:07.262Z,0
2018-09-29T01:05:17.217Z,0
2018-09-29T01:06:26.412Z,0
2018-09-29T01:07:36.307Z,0
2018-09-29T01:08:46.011Z,0
2018-09-29T01:09:55.194Z,0
2018-09-29T01:11:04.366Z,0
2018-09-29T01:12:13.514Z,0
2018-09-29T01:13:22.960Z,0
2018-09-29T01:14:32.372Z,0
2018-09-29T01:15:41.803Z,0
2018-09-29T01:16:50.972Z,0
2018-09-29T01:18:00.674Z,0
2018-09-29T01:19:09.584Z,0
2018-09-29T01:20:18.749Z,0
2018-09-29T01:21:27.921Z,0
2018-09-29T01:22:37.353Z,0
2018-09-29T01:23:47.284Z,0
2018-09-29T01:24:56.462Z,0
2018-09-29T01:26:05.613Z,0
2018-09-29T01:27:15.048Z,0
2018-09-29T01:28:24.223Z,0
2018-09-29T01:29:33.372Z,0
2018-09-29T01:30:42.530Z,0
2018-09-29T01:31:52.212Z,0
2018-09-29T01:33:01.621Z,0
2018-09-29T01:34:10.528Z,0
2018-09-29T01:35:19.958Z,0
2018-09-29T01:36:28.871Z,0
2018-09-29T01:37:38.548Z,0
2018-09-29T01:38:48.213Z,0
2018-09-29T01:39:57.629Z,0
2018-09-29T01:41:06.527Z,0
2018-09-29T01:42:16.205Z,0
2018-09-29T01:43:25.895Z,0
2018-09-29T01:44:35.331Z,0
2018-09-29T01:45:45.258Z,0
2018-09-29T01:46:54.938Z,0
2018-09-29T01:48:04.109Z,0
2018-09-29T01:49:13.790Z,0
2018-09-29T01:50:23.475Z,0
2018-09-29T01:51:32.393Z,0
2018-09-29T01:52:42.328Z,0
2018-09-29T01:53:51.772Z,0
2018-09-29T01:55:00.685Z,0
2018-09-29T01:56:09.859Z,0
2018-09-29T01:57:19.290Z,0
2018-09-29T01:58:28.967Z,0
2018-09-29T01:59:38.674Z,0
2018-09-29T02:00:47.853Z,0
2018-09-29T02:01:57.280Z,0
2018-09-29T02:03:07.211Z,0
2018-09-29T02:04:16.894Z,0
2018-09-29T02:05:25.811Z,0
2018-09-29T02:06:35.222Z,0
2018-09-29T02:07:44.635Z,0
2018-09-29T02:08:54.056Z,0
2018-09-29T02:10:03.478Z,0
2018-09-29T02:11:12.891Z,0
2018-09-29T02:12:22.322Z,0
2018-09-29T02:13:32.032Z,0
2018-09-29T02:14:41.192Z,0
2018-09-29T02:15:50.598Z,0
2018-09-29T02:17:00.023Z,0
2018-09-29T02:18:09.758Z,0
2018-09-29T02:19:18.921Z,0
2018-09-29T02:20:28.340Z,0
2018-09-29T02:21:38.275Z,0
2018-09-29T02:22:47.178Z,0
2018-09-29T02:23:56.614Z,0
2018-09-29T02:25:06.295Z,0
2018-09-29T02:26:15.716Z,0
2018-09-29T02:27:25.134Z,0
2018-09-29T02:28:34.725Z,0
2018-09-29T02:29:44.114Z,0
2018-09-29T02:30:53.790Z,0
2018-09-29T02:32:03.483Z,0
2018-09-29T02:33:13.184Z,0
2018-09-29T02:34:22.919Z,0
2018-09-29T02:35:32.096Z,0
2018-09-29T02:36:41.814Z,0
2018-09-29T02:37:50.733Z,0
2018-09-29T02:38:59.953Z,0
2018-09-29T02:40:09.646Z,0
2018-09-29T02:41:19.570Z,0
2018-09-29T02:42:29.497Z,0
2018-09-29T02:43:38.921Z,0
2018-09-29T02:44:48.855Z,0
2018-09-29T02:45:58.536Z,0
2018-09-29T02:47:07.940Z,0
2018-09-29T02:48:17.398Z,0
2018-09-29T02:49:26.815Z,0
2018-09-29T02:50:35.973Z,0
2018-09-29T02:51:45.654Z,0
2018-09-29T02:52:54.832Z,0
2018-09-29T02:54:03.996Z,0
2018-09-29T02:55:13.159Z,0
2018-09-29T02:56:22.843Z,0
2018-09-29T02:57:32.521Z,0
2018-09-29T02:58:41.947Z,0
2018-09-29T02:59:51.641Z,0
2018-09-29T03:01:01.395Z,0
2018-09-29T03:02:10.554Z,0
2018-09-29T03:03:19.972Z,0
2018-09-29T03:04:28.875Z,0
2018-09-29T03:05:38.330Z,0
2018-09-29T03:06:48.271Z,0
2018-09-29T03:07:58.215Z,0
2018-09-29T03:09:08.161Z,0
2018-09-29T03:10:17.827Z,0
2018-09-29T03:11:27.255Z,0
2018-09-29T03:12:36.432Z,0
2018-09-29T03:13:45.588Z,0
2018-09-29T03:14:54.748Z,0
2018-09-29T03:16:04.413Z,0
2018-09-29T03:17:14.092Z,0
2018-09-29T03:18:23.519Z,0
2018-09-29T03:19:33.426Z,0
2018-09-29T03:20:43.127Z,0
2018-09-29T03:21:52.287Z,0
2018-09-29T03:23:02.036Z,0
2018-09-29T03:24:11.455Z,0
2018-09-29T03:25:21.395Z,0
2018-09-29T03:26:31.071Z,0
2018-09-29T03:27:40.751Z,0
2018-09-29T03:28:50.181Z,0
2018-09-29T03:29:59.336Z,0
2018-09-29T03:31:09.016Z,0
2018-09-29T03:32:19.018Z,0
2018-09-29T03:33:28.197Z,0
2018-09-29T03:34:37.376Z,0
2018-09-29T03:35:46.799Z,0
2018-09-29T03:36:56.228Z,0
2018-09-29T03:38:04.869Z,0
2018-09-29T03:39:14.035Z,0
2018-09-29T03:40:23.709Z,0
2018-09-29T03:41:33.654Z,0
2018-09-29T03:42:43.594Z,0
2018-09-29T03:43:52.759Z,0
2018-09-29T03:45:02.203Z,0
2018-09-29T03:46:11.628Z,0
2018-09-29T03:47:20.803Z,0
2018-09-29T03:48:29.962Z,0
2018-09-29T03:49:39.645Z,0
2018-09-29T03:50:49.339Z,0
2018-09-29T03:51:59.281Z,0
2018-09-29T03:53:08.694Z,0
2018-09-29T03:54:18.367Z,0
2018-09-29T03:55:28.071Z,0
2018-09-29T03:56:37.775Z,0
2018-09-29T03:57:46.667Z,0
2018-09-29T03:58:55.827Z,0
2018-09-29T04:00:05.252Z,0
2018-09-29T04:01:14.419Z,0
2018-09-29T04:02:23.590Z,0
2018-09-29T04:03:32.231Z,0
2018-09-29T04:04:41.648Z,0
2018-09-29T04:05:51.082Z,0
2018-09-29T04:07:00.502Z,0
2018-09-29T04:08:09.933Z,0
2018-09-29T04:09:19.393Z,0
2018-09-29T04:10:29.080Z,0
2018-09-29T04:11:38.777Z,0
2018-09-29T04:12:48.204Z,0
2018-09-29T04:13:58.425Z,0
2018-09-29T04:15:07.710Z,0
2018-09-29T04:16:17.388Z,0
2018-09-29T04:17:27.319Z,0
2018-09-29T04:18:36.481Z,0
2018-09-29T04:19:45.897Z,0
2018-09-29T04:20:55.314Z,0
2018-09-29T04:22:04.754Z,0
2018-09-29T04:23:14.171Z,0
2018-09-29T04:24:23.607Z,0
2018-09-29T04:25:32.247Z,0
2018-09-29T04:26:41.939Z,0
2018-09-29T04:27:51.346Z,0
2018-09-29T04:29:01.048Z,0
2018-09-29T04:30:10.729Z,0
2018-09-29T04:31:20.162Z,0
2018-09-29T04:32:29.871Z,0
2018-09-29T04:33:39.818Z,0
2018-09-29T04:34:49.779Z,0
2018-09-29T04:35:59.706Z,0
2018-09-29T04:37:09.159Z,0
2018-09-29T04:38:18.575Z,0
2018-09-29T04:39:27.730Z,0
2018-09-29T04:40:37.141Z,0
2018-09-29T04:41:46.827Z,0
2018-09-29T04:42:56.502Z,0
2018-09-29T04:44:05.720Z,0
2018-09-29T04:45:15.127Z,0
2018-09-29T04:46:24.032Z,0
2018-09-29T04:47:33.710Z,0
2018-09-29T04:48:43.657Z,0
2018-09-29T04:49:53.100Z,0
2018-09-29T04:51:02.804Z,0
2018-09-29T04:52:11.720Z,0
2018-09-29T04:53:21.408Z,0
2018-09-29T04:54:30.829Z,0
2018-09-29T04:55:39.775Z,0
2018-09-29T04:56:49.190Z,0
2018-09-29T04:57:59.119Z,0
2018-09-29T04:59:08.544Z,0
2018-09-29T05:00:18.255Z,0
2018-09-29T05:01:27.935Z,0
2018-09-29T05:02:37.352Z,0
2018-09-29T05:03:47.036Z,0
2018-09-29T05:04:56.455Z,0
2018-09-29T05:06:05.863Z,0
2018-09-29T05:07:15.026Z,0
2018-09-29T05:08:24.452Z,0
2018-09-29T05:09:33.369Z,0
2018-09-29T05:10:43.047Z,0
2018-09-29T05:11:51.963Z,0
2018-09-29T05:13:01.422Z,0
2018-09-29T05:14:11.435Z,0
2018-09-29T05:15:20.857Z,0
2018-09-29T05:16:30.283Z,0
2018-09-29T05:17:39.986Z,0
2018-09-29T05:18:49.935Z,0
2018-09-29T05:19:59.877Z,0
2018-09-29T05:21:09.305Z,0
2018-09-29T05:22:18.729Z,0
2018-09-29T05:23:28.574Z,0
2018-09-29T05:24:37.743Z,0
2018-09-29T05:25:46.705Z,0
2018-09-29T05:26:55.874Z,0
2018-09-29T05:28:05.043Z,0
2018-09-29T05:29:14.206Z,0
2018-09-29T05:30:23.880Z,0
2018-09-29T05:31:33.823Z,0
2018-09-29T05:32:43.524Z,0
2018-09-29T05:33:52.735Z,0
2018-09-29T05:35:01.893Z,0
2018-09-29T05:36:11.300Z,0
2018-09-29T05:37:20.212Z,0
2018-09-29T05:38:30.342Z,0
2018-09-29T05:39:39.959Z,0
2018-09-29T05:40:49.662Z,0
2018-09-29T05:41:59.327Z,0
2018-09-29T05:43:08.753Z,0
2018-09-29T05:44:18.175Z,0
2018-09-29T05:45:27.367Z,0
2018-09-29T05:46:36.790Z,0
2018-09-29T05:47:46.454Z,0
2018-09-29T05:48:55.870Z,0
2018-09-29T05:50:05.325Z,0
2018-09-29T05:51:15.090Z,0
2018-09-29T05:52:24.497Z,0
2018-09-29T05:53:33.674Z,0
2018-09-29T05:54:42.573Z,0
2018-09-29T05:55:52.262Z,0
2018-09-29T05:57:01.963Z,0
2018-09-29T05:58:10.879Z,0
2018-09-29T05:59:20.574Z,0
2018-09-29T06:00:29.853Z,0
2018-09-29T06:01:39.310Z,0
2018-09-29T06:02:49.267Z,0
2018-09-29T06:03:58.217Z,0
2018-09-29T06:05:07.657Z,4
2018-09-29T06:06:17.080Z,4
2018-09-29T06:07:27.351Z,4
2018-09-29T06:08:37.502Z,4
2018-09-29T06:09:46.662Z,4
2018-09-29T06:10:56.351Z,4
2018-09-29T06:12:05.533Z,4
2018-09-29T06:13:15.774Z,4
2018-09-29T06:14:25.398Z,4
2018-09-29T06:15:34.553Z,4
2018-09-29T06:16:44.481Z,0
2018-09-29T06:17:54.182Z,0
2018-09-29T06:19:03.859Z,0
2018-09-29T06:20:13.529Z,0
2018-09-29T06:21:23.206Z,0
2018-09-29T06:22:32.354Z,0
2018-09-29T06:23:42.021Z,0
2018-09-29T06:24:51.693Z,0
2018-09-29T06:26:00.596Z,0
2018-09-29T06:27:10.025Z,0
2018-09-29T06:28:19.474Z,4
2018-09-29T06:29:29.180Z,4
2018-09-29T06:30:38.346Z,4
2018-09-29T06:31:47.770Z,4
2018-09-29T06:32:57.183Z,4
2018-09-29T06:34:06.950Z,4
2018-09-29T06:35:16.912Z,4
2018-09-29T06:36:26.057Z,4
2018-09-29T06:37:35.736Z,4
2018-09-29T06:38:45.673Z,4
2018-09-29T06:39:55.078Z,4
2018-09-29T06:41:04.383Z,4
2018-09-29T06:42:14.061Z,4
2018-09-29T06:43:23.740Z,0
2018-09-29T06:44:33.421Z,0
2018-09-29T06:45:42.844Z,4
2018-09-29T06:46:52.523Z,4
2018-09-29T06:48:02.320Z,4
2018-09-29T06:49:11.797Z,4
2018-09-29T06:50:21.489Z,4
2018-09-29T06:51:31.171Z,4
2018-09-29T06:52:40.580Z,4
2018-09-29T06:53:50.007Z,4
2018-09-29T06:54:59.683Z,4
2018-09-29T06:56:08.616Z,4
2018-09-29T06:57:18.030Z,4
2018-09-29T06:58:27.964Z,4
2018-09-29T06:59:37.141Z,8
2018-09-29T07:00:46.803Z,4
2018-09-29T07:01:56.213Z,8
2018-09-29T07:03:06.494Z,4
2018-09-29T07:04:15.980Z,4
2018-09-29T07:05:24.982Z,8
2018-09-29T07:06:34.651Z,4
2018-09-29T07:07:45.034Z,4
2018-09-29T07:08:54.466Z,4
2018-09-29T07:10:03.897Z,8
2018-09-29T07:11:13.064Z,8
2018-09-29T07:12:22.501Z,4
2018-09-29T07:13:32.443Z,8
2018-09-29T07:14:42.379Z,8
2018-09-29T07:15:52.124Z,4
2018-09-29T07:17:01.587Z,8
2018-09-29T07:18:11.264Z,8
2018-09-29T07:19:21.203Z,8
2018-09-29T07:20:30.692Z,12
2018-09-29T07:21:41.083Z,12
2018-09-29T07:22:50.822Z,8
2018-09-29T07:24:00.246Z,12
2018-09-29T07:25:10.005Z,12
2018-09-29T07:26:19.673Z,8
2018-09-29T07:27:29.104Z,12
2018-09-29T07:28:38.529Z,12
2018-09-29T07:29:48.108Z,12
2018-09-29T07:30:58.955Z,12
2018-09-29T07:32:08.880Z,12
2018-09-29T07:33:18.306Z,12
2018-09-29T07:34:27.716Z,12
2018-09-29T07:35:36.885Z,12
2018-09-29T07:36:46.574Z,12
2018-09-29T07:37:56.260Z,12
2018-09-29T07:39:05.978Z,8
2018-09-29T07:40:15.701Z,12
2018-09-29T07:41:25.111Z,12
2018-09-29T07:42:34.531Z,16
2018-09-29T07:43:44.223Z,12
2018-09-29T07:44:53.902Z,12
2018-09-29T07:46:03.058Z,12
2018-09-29T07:47:12.496Z,12
2018-09-29T07:48:22.432Z,12
2018-09-29T07:49:31.922Z,12
2018-09-29T07:50:41.854Z,12
2018-09-29T07:51:51.311Z,16
2018-09-29T07:53:01.269Z,16
2018-09-29T07:54:11.004Z,16
2018-09-29T07:55:20.442Z,16
2018-09-29T07:56:30.144Z,16
2018-09-29T07:57:39.860Z,16
2018-09-29T07:58:49.288Z,16
2018-09-29T07:59:58.712Z,20
2018-09-29T08:01:08.662Z,16
2018-09-29T08:02:18.579Z,16
2018-09-29T08:03:28.020Z,16
2018-09-29T08:04:37.701Z,16
2018-09-29T08:05:47.130Z,16
2018-09-29T08:06:56.553Z,16
2018-09-29T08:08:05.991Z,20
2018-09-29T08:09:15.469Z,16
2018-09-29T08:10:25.182Z,16
2018-09-29T08:11:34.141Z,16
2018-09-29T08:12:44.071Z,16
2018-09-29T08:13:53.250Z,12
2018-09-29T08:15:02.691Z,12
2018-09-29T08:16:11.929Z,16
2018-09-29T08:17:21.633Z,16
2018-09-29T08:18:31.059Z,16
2018-09-29T08:19:40.495Z,16
2018-09-29T08:20:50.195Z,12
2018-09-29T08:21:59.616Z,12
2018-09-29T08:23:08.287Z,12
2018-09-29T08:24:17.856Z,16
2018-09-29T08:25:27.367Z,16
2018-09-29T08:26:36.796Z,16
2018-09-29T08:27:46.506Z,16
2018-09-29T08:28:56.179Z,16
2018-09-29T08:30:05.621Z,12
2018-09-29T08:31:15.319Z,16
2018-09-29T08:32:25.430Z,16
2018-09-29T08:33:35.428Z,16
2018-09-29T08:34:44.867Z,16
2018-09-29T08:35:54.280Z,16
2018-09-29T08:37:03.198Z,16
2018-09-29T08:38:13.577Z,20
2018-09-29T08:39:23.525Z,16
2018-09-29T08:40:33.674Z,20
2018-09-29T08:41:43.111Z,20
2018-09-29T08:42:52.790Z,20
2018-09-29T08:44:02.227Z,20
2018-09-29T08:45:11.412Z,20
2018-09-29T08:46:21.117Z,20
2018-09-29T08:47:30.550Z,24
2018-09-29T08:48:39.972Z,20
2018-09-29T08:49:48.894Z,20
2018-09-29T08:50:57.789Z,20
2018-09-29T08:52:06.956Z,24
2018-09-29T08:53:16.909Z,24
2018-09-29T08:54:26.667Z,24
2018-09-29T08:55:36.091Z,24
2018-09-29T08:56:46.020Z,24
2018-09-29T08:57:55.700Z,24
2018-09-29T08:59:05.114Z,24
2018-09-29T09:00:14.549Z,24
2018-09-29T09:01:24.239Z,24
2018-09-29T09:02:33.992Z,24
2018-09-29T09:03:43.168Z,24
2018-09-29T09:04:53.116Z,24
2018-09-29T09:06:02.279Z,28
2018-09-29T09:07:11.218Z,28
2018-09-29T09:08:20.395Z,24
2018-09-29T09:09:30.494Z,28
2018-09-29T09:10:40.358Z,28
2018-09-29T09:11:50.296Z,28
2018-09-29T09:12:59.779Z,28
2018-09-29T09:14:09.323Z,28
2018-09-29T09:15:19.004Z,28
2018-09-29T09:16:28.169Z,28
2018-09-29T09:17:37.579Z,28
2018-09-29T09:18:47.002Z,28
2018-09-29T09:19:56.429Z,28
2018-09-29T09:21:05.602Z,32
2018-09-29T09:22:15.567Z,28
2018-09-29T09:23:25.401Z,32
2018-09-29T09:24:35.091Z,28
2018-09-29T09:25:44.779Z,32
2018-09-29T09:26:54.757Z,28
2018-09-29T09:28:04.216Z,28
2018-09-29T09:29:14.175Z,28
2018-09-29T09:30:24.786Z,28
2018-09-29T09:31:34.261Z,32
2018-09-29T09:32:44.030Z,32
2018-09-29T09:33:53.221Z,32
2018-09-29T09:35:02.671Z,28
2018-09-29T09:36:12.143Z,28
2018-09-29T09:37:21.353Z,28
2018-09-29T09:38:31.046Z,28
2018-09-29T09:39:39.957Z,28
2018-09-29T09:40:49.640Z,24
2018-09-29T09:41:59.320Z,24
2018-09-29T09:43:08.769Z,28
2018-09-29T09:44:18.462Z,28
2018-09-29T09:45:27.907Z,28
2018-09-29T09:46:37.610Z,28
2018-09-29T09:47:47.287Z,28
2018-09-29T09:48:56.967Z,24
2018-09-29T09:50:06.439Z,28
2018-09-29T09:51:15.613Z,28
2018-09-29T09:52:26.065Z,28
2018-09-29T09:53:35.523Z,24
2018-09-29T09:54:44.945Z,28
2018-09-29T09:55:55.007Z,24
2018-09-29T09:57:04.658Z,28
2018-09-29T09:58:14.377Z,28
2018-09-29T09:59:24.104Z,28
2018-09-29T10:00:33.536Z,24
2018-09-29T10:01:43.215Z,24
2018-09-29T10:02:52.125Z,24
2018-09-29T10:04:01.556Z,24
2018-09-29T10:05:10.960Z,24
2018-09-29T10:06:20.464Z,28
2018-09-29T10:07:29.674Z,28
2018-09-29T10:08:39.149Z,28
2018-09-29T10:09:48.834Z,24
2018-09-29T10:10:58.266Z,24
2018-09-29T10:12:07.934Z,28
2018-09-29T10:13:17.611Z,28
2018-09-29T10:14:26.772Z,28
2018-09-29T10:15:36.188Z,24
2018-09-29T10:16:45.627Z,24
2018-09-29T10:17:55.053Z,24
2018-09-29T10:19:04.494Z,28
2018-09-29T10:20:13.912Z,28
2018-09-29T10:21:23.340Z,24
2018-09-29T10:22:33.278Z,24
2018-09-29T10:23:42.707Z,24
2018-09-29T10:24:52.382Z,24
2018-09-29T10:26:01.810Z,24
2018-09-29T10:27:11.145Z,24
2018-09-29T10:28:20.593Z,24
2018-09-29T10:29:30.030Z,24
2018-09-29T10:30:39.437Z,24
2018-09-29T10:31:48.637Z,24
2018-09-29T10:32:58.070Z,24
2018-09-29T10:34:07.766Z,24
2018-09-29T10:35:17.451Z,24
2018-09-29T10:36:27.015Z,24
2018-09-29T10:37:36.263Z,24
2018-09-29T10:38:45.945Z,24
2018-09-29T10:39:55.365Z,24
2018-09-29T10:41:05.046Z,24
2018-09-29T10:42:14.209Z,24
2018-09-29T10:43:23.904Z,24
2018-09-29T10:44:33.593Z,24
2018-09-29T10:45:43.262Z,24
2018-09-29T10:46:52.693Z,24
2018-09-29T10:48:02.109Z,24
2018-09-29T10:49:11.790Z,24
2018-09-29T10:50:21.728Z,24
2018-09-29T10:51:31.149Z,24
2018-09-29T10:52:40.608Z,24
2018-09-29T10:53:50.049Z,24
2018-09-29T10:54:59.745Z,24
2018-09-29T10:56:08.911Z,24
2018-09-29T10:57:18.605Z,24
2018-09-29T10:58:27.772Z,20
2018-09-29T10:59:36.988Z,24
2018-09-29T11:00:46.729Z,24
2018-09-29T11:01:56.179Z,24
2018-09-29T11:03:05.360Z,24
2018-09-29T11:04:14.785Z,20
2018-09-29T11:05:23.960Z,20
2018-09-29T11:06:33.380Z,24
2018-09-29T11:07:42.825Z,24
2018-09-29T11:08:52.525Z,24
2018-09-29T11:10:01.952Z,20
2018-09-29T11:11:11.100Z,20
2018-09-29T11:12:20.517Z,20
2018-09-29T11:13:29.962Z,20
2018-09-29T11:14:39.303Z,20
2018-09-29T11:15:48.739Z,20
2018-09-29T11:16:58.452Z,20
2018-09-29T11:18:20.457Z,20
2018-09-29T11:19:29.895Z,16
2018-09-29T11:20:39.072Z,16
2018-09-29T11:21:48.294Z,16
2018-09-29T11:22:57.479Z,16
2018-09-29T11:24:06.920Z,20
2018-09-29T11:25:16.336Z,20
2018-09-29T11:26:25.498Z,16
2018-09-29T11:27:34.426Z,20
2018-09-29T11:28:44.172Z,16
2018-09-29T11:29:53.951Z,16
2018-09-29T11:31:03.636Z,16
2018-09-29T11:32:12.556Z,16
2018-09-29T11:33:21.715Z,16
2018-09-29T11:34:30.959Z,16
2018-09-29T11:35:40.639Z,16
2018-09-29T11:36:50.357Z,20
2018-09-29T11:37:59.816Z,16
2018-09-29T11:39:09.564Z,16
2018-09-29T11:40:19.070Z,16
2018-09-29T11:41:29.102Z,16
2018-09-29T11:42:38.295Z,20
2018-09-29T11:43:47.471Z,20
2018-09-29T11:44:57.615Z,20
2018-09-29T11:46:07.025Z,24
2018-09-29T11:47:16.197Z,24
2018-09-29T11:48:25.101Z,24
2018-09-29T11:49:34.274Z,24
2018-09-29T11:50:43.748Z,20
2018-09-29T11:51:53.201Z,24
2018-09-29T11:53:03.327Z,24
2018-09-29T11:54:13.010Z,24
2018-09-29T11:55:21.919Z,28
2018-09-29T11:56:31.602Z,28
2018-09-29T11:57:41.025Z,28
2018-09-29T11:58:50.711Z,28
2018-09-29T11:59:59.882Z,28
2018-09-29T12:01:09.063Z,28
2018-09-29T12:02:18.775Z,24
2018-09-29T12:03:28.313Z,28
2018-09-29T12:04:37.226Z,28
2018-09-29T12:05:46.435Z,28
2018-09-29T12:06:55.707Z,24
2018-09-29T12:08:05.940Z,28
2018-09-29T12:09:15.879Z,28
2018-09-29T12:10:25.575Z,32
2018-09-29T12:11:35.021Z,28
2018-09-29T12:12:44.434Z,32
2018-09-29T12:13:54.358Z,32
2018-09-29T12:15:04.240Z,32
2018-09-29T12:16:13.909Z,36
2018-09-29T12:17:23.336Z,32
2018-09-29T12:18:33.024Z,36
2018-09-29T12:19:42.448Z,36
2018-09-29T12:20:51.901Z,36
2018-09-29T12:22:01.099Z,36
2018-09-29T12:23:09.993Z,36
2018-09-29T12:24:19.417Z,32
2018-09-29T12:25:28.855Z,32
2018-09-29T12:26:38.530Z,28
2018-09-29T12:27:47.948Z,28
2018-09-29T12:28:57.107Z,28
2018-09-29T12:30:06.711Z,24
2018-09-29T12:31:16.128Z,24
2018-09-29T12:32:25.806Z,20
2018-09-29T12:33:35.230Z,24
2018-09-29T12:34:44.405Z,24
2018-09-29T12:35:54.078Z,24
2018-09-29T12:37:03.584Z,20
2018-09-29T12:38:12.661Z,20
2018-09-29T12:39:21.805Z,24
2018-09-29T12:40:31.511Z,20
2018-09-29T12:41:40.923Z,24
2018-09-29T12:42:50.364Z,28
2018-09-29T12:43:59.804Z,24
2018-09-29T12:45:08.978Z,28
2018-09-29T12:46:18.666Z,36
2018-09-29T12:47:28.089Z,36
2018-09-29T12:48:37.838Z,40
2018-09-29T12:49:47.507Z,40
2018-09-29T12:50:56.940Z,44
2018-09-29T12:52:06.915Z,44
2018-09-29T12:53:15.816Z,48
2018-09-29T12:54:25.300Z,48
2018-09-29T12:55:34.467Z,48
2018-09-29T12:56:43.890Z,48
2018-09-29T12:57:53.578Z,48
2018-09-29T12:59:04.046Z,52
2018-09-29T13:00:13.485Z,52
2018-09-29T13:01:22.903Z,52
2018-09-29T13:02:31.868Z,52
2018-09-29T13:03:40.750Z,52
2018-09-29T13:04:49.912Z,52
2018-09-29T13:05:59.589Z,52
2018-09-29T13:07:08.488Z,52
2018-09-29T13:08:18.428Z,52
2018-09-29T13:09:27.635Z,52
2018-09-29T13:10:37.064Z,52
2018-09-29T13:11:46.494Z,52
2018-09-29T13:12:56.187Z,56
2018-09-29T13:14:05.530Z,56
2018-09-29T13:15:14.722Z,40
2018-09-29T13:16:24.146Z,44
2018-09-29T13:17:34.070Z,52
2018-09-29T13:18:43.755Z,52
2018-09-29T13:19:53.171Z,52
2018-09-29T13:21:02.355Z,52
2018-09-29T13:22:12.057Z,56
2018-09-29T13:23:20.956Z,56
2018-09-29T13:24:30.469Z,56
2018-09-29T13:25:40.152Z,56
2018-09-29T13:26:49.339Z,56
2018-09-29T13:27:59.008Z,56
2018-09-29T13:29:08.430Z,56
2018-09-29T13:30:18.110Z,56
2018-09-29T13:31:27.520Z,60
2018-09-29T13:32:37.463Z,64
2018-09-29T13:33:47.211Z,64
2018-09-29T13:34:57.168Z,64
2018-09-29T13:36:06.860Z,60
2018-09-29T13:37:15.892Z,60
2018-09-29T13:38:26.270Z,56
2018-09-29T13:39:36.219Z,64
2018-09-29T13:40:45.111Z,60
2018-09-29T13:41:54.290Z,60
2018-09-29T13:43:03.703Z,60
2018-09-29T13:44:13.123Z,64
2018-09-29T13:45:23.055Z,64
2018-09-29T13:46:32.735Z,64
2018-09-29T13:47:42.164Z,64
2018-09-29T13:48:51.633Z,64
2018-09-29T13:50:01.077Z,60
2018-09-29T13:51:10.519Z,60
2018-09-29T13:52:19.997Z,60
2018-09-29T13:53:29.972Z,60
2018-09-29T13:54:39.168Z,56
2018-09-29T13:55:48.886Z,52
2018-09-29T13:56:58.045Z,44
2018-09-29T13:58:07.727Z,32
2018-09-29T13:59:16.903Z,20
2018-09-29T14:00:26.607Z,12
2018-09-29T14:01:35.511Z,12
2018-09-29T14:02:44.678Z,4
2018-09-29T14:03:54.385Z,4
2018-09-29T14:05:04.629Z,8
2018-09-29T14:06:14.071Z,8
2018-09-29T14:07:23.767Z,8
2018-09-29T14:08:33.552Z,8
2018-09-29T14:09:42.796Z,8
2018-09-29T14:10:52.488Z,8
2018-09-29T14:12:02.193Z,8
2018-09-29T14:13:11.104Z,4
2018-09-29T14:14:20.273Z,8
2018-09-29T14:15:29.449Z,8
2018-09-29T14:16:39.133Z,8
2018-09-29T14:17:49.154Z,8
2018-09-29T14:18:58.845Z,4
2018-09-29T14:20:08.802Z,4
2018-09-29T14:21:18.486Z,4
2018-09-29T14:22:27.447Z,4
2018-09-29T14:23:36.593Z,8
2018-09-29T14:24:46.284Z,8
2018-09-29T14:25:55.706Z,8
2018-09-29T14:27:05.382Z,4
2018-09-29T14:28:14.545Z,4
2018-09-29T14:29:24.247Z,4
2018-09-29T14:30:33.943Z,4
2018-09-29T14:31:43.363Z,4
2018-09-29T14:32:52.522Z,4
2018-09-29T14:34:01.704Z,4
2018-09-29T14:35:10.883Z,4
2018-09-29T14:36:20.838Z,4
2018-09-29T14:37:29.496Z,4
2018-09-29T14:38:38.653Z,4
2018-09-29T14:39:48.346Z,4
2018-09-29T14:40:57.770Z,4
2018-09-29T14:42:07.826Z,8
2018-09-29T14:43:17.508Z,8
2018-09-29T14:44:26.920Z,8
2018-09-29T14:45:36.089Z,8
2018-09-29T14:46:45.574Z,4
2018-09-29T14:47:54.737Z,4
2018-09-29T14:49:04.171Z,4
2018-09-29T14:50:13.590Z,4
2018-09-29T14:51:23.265Z,4
2018-09-29T14:52:33.222Z,4
2018-09-29T14:53:42.894Z,4
2018-09-29T14:54:52.593Z,4
2018-09-29T14:56:02.016Z,4
2018-09-29T14:57:11.183Z,4
2018-09-29T14:58:20.628Z,4
2018-09-29T14:59:29.604Z,4
2018-09-29T15:00:39.547Z,4
2018-09-29T15:01:49.219Z,4
2018-09-29T15:02:58.641Z,4
2018-09-29T15:04:08.166Z,4
2018-09-29T15:05:17.664Z,4
2018-09-29T15:06:27.345Z,4
2018-09-29T15:07:36.525Z,4
2018-09-29T15:08:46.190Z,4
2018-09-29T15:09:55.352Z,4
2018-09-29T15:11:04.849Z,4
2018-09-29T15:12:13.756Z,4
2018-09-29T15:13:23.176Z,4
2018-09-29T15:14:32.349Z,4
2018-09-29T15:15:41.526Z,4
2018-09-29T15:16:51.476Z,4
2018-09-29T15:18:00.407Z,4
2018-09-29T15:19:10.075Z,4
2018-09-29T15:20:19.577Z,4
2018-09-29T15:21:29.014Z,4
2018-09-29T15:22:38.007Z,4
2018-09-29T15:23:47.466Z,4
2018-09-29T15:24:57.139Z,0
2018-09-29T15:26:06.756Z,0
2018-09-29T15:27:16.700Z,0
2018-09-29T15:28:26.626Z,0
2018-09-29T15:29:36.076Z,0
2018-09-29T15:30:45.244Z,0
2018-09-29T15:31:54.928Z,0
2018-09-29T15:33:04.119Z,0
2018-09-29T15:34:13.549Z,0
2018-09-29T15:35:23.505Z,0
2018-09-29T15:36:32.965Z,0
2018-09-29T15:37:42.671Z,0
2018-09-29T15:38:52.090Z,0
2018-09-29T15:40:01.504Z,4
2018-09-29T15:41:11.196Z,0
2018-09-29T15:42:20.730Z,0
2018-09-29T15:43:30.564Z,0
2018-09-29T15:44:39.994Z,4
2018-09-29T15:45:49.676Z,4
2018-09-29T15:46:59.596Z,4
2018-09-29T15:48:09.292Z,4
2018-09-29T15:49:18.972Z,4
2018-09-29T15:50:28.405Z,4
2018-09-29T15:51:37.818Z,4
2018-09-29T15:52:46.981Z,4
2018-09-29T15:53:56.408Z,4
2018-09-29T15:55:05.975Z,4
2018-09-29T15:56:17.538Z,4
2018-09-29T15:57:26.704Z,4
2018-09-29T15:58:35.613Z,4
2018-09-29T15:59:45.512Z,4
2018-09-29T16:00:54.707Z,4
2018-09-29T16:02:04.466Z,4
2018-09-29T16:03:14.127Z,4
2018-09-29T16:04:23.673Z,4
2018-09-29T16:05:32.590Z,4
2018-09-29T16:06:42.026Z,4
2018-09-29T16:07:51.695Z,4
2018-09-29T16:09:00.913Z,4
2018-09-29T16:10:10.629Z,4
2018-09-29T16:11:20.055Z,4
2018-09-29T16:12:29.825Z,4
2018-09-29T16:13:39.816Z,0
2018-09-29T16:14:49.242Z,0
2018-09-29T16:15:58.159Z,0
2018-09-29T16:17:07.318Z,0
2018-09-29T16:18:16.951Z,0
2018-09-29T16:19:26.382Z,0
2018-09-29T16:20:36.075Z,0
2018-09-29T16:21:45.466Z,0
2018-09-29T16:22:55.277Z,0
2018-09-29T16:24:04.438Z,0
2018-09-29T16:25:13.590Z,0
2018-09-29T16:26:23.726Z,0
2018-09-29T16:27:32.898Z,0
2018-09-29T16:28:42.595Z,0
2018-09-29T16:29:52.263Z,0
2018-09-29T16:31:01.720Z,0
2018-09-29T16:32:12.196Z,0
2018-09-29T16:33:21.199Z,0
2018-09-29T16:34:31.269Z,0
2018-09-29T16:35:41.420Z,0
2018-09-29T16:36:51.510Z,0
2018-09-29T16:38:01.173Z,0
2018-09-29T16:39:10.847Z,0
2018-09-29T16:40:20.539Z,0
2018-09-29T16:41:29.968Z,0
2018-09-29T16:42:39.556Z,0
2018-09-29T16:43:49.521Z,0
2018-09-29T16:44:59.399Z,0
2018-09-29T16:46:09.188Z,0
2018-09-29T16:47:18.632Z,0
2018-09-29T16:48:28.309Z,0
2018-09-29T16:49:37.979Z,0
2018-09-29T16:50:47.135Z,0
2018-09-29T16:51:56.806Z,0
2018-09-29T16:53:06.489Z,0